sensor_id;sensor_type;location;lat;lon;timestamp;temperature;humidity
52869;DHT22;39100;53.480;6.158;2023-02-26T00:00:59;3.80;99.90
52869;DHT22;39100;53.480;6.158;2023-02-26T00:03:24;3.80;99.90
52869;DHT22;39100;53.480;6.158;2023-02-26T00:05:50;3.80;99.90
52869;DHT22;39100;53.480;6.158;2023-02-26T00:08:15;3.80;99.90
52869;DHT22;39100;53.480;6.158;2023-02-26T00:10:41;3.70;99.90
52869;DHT22;39100;53.480;6.158;2023-02-26T00:13:09;3.70;99.90
52869;DHT22;39100;53.480;6.158;2023-02-26T00:15:35;3.80;99.90
52869;DHT22;39100;53.480;6.158;2023-02-26T00:18:06;3.80;99.90
52869;DHT22;39100;53.480;6.158;2023-02-26T00:20:33;3.80;99.90
52869;DHT22;39100;53.480;6.158;2023-02-26T00:23:00;3.80;99.90
52869;DHT22;39100;53.480;6.158;2023-02-26T00:25:26;3.80;99.90
52869;DHT22;39100;53.480;6.158;2023-02-26T00:27:52;3.80;99.90
52869;DHT22;39100;53.480;6.158;2023-02-26T00:30:18;3.80;99.90
52869;DHT22;39100;53.480;6.158;2023-02-26T00:32:44;3.80;99.90
52869;DHT22;39100;53.480;6.158;2023-02-26T00:35:13;3.80;99.90
52869;DHT22;39100;53.480;6.158;2023-02-26T00:38:10;3.80;99.90
52869;DHT22;39100;53.480;6.158;2023-02-26T00:40:46;3.80;99.90
52869;DHT22;39100;53.480;6.158;2023-02-26T00:43:23;3.80;99.90
52869;DHT22;39100;53.480;6.158;2023-02-26T00:48:48;3.80;99.90
52869;DHT22;39100;53.480;6.158;2023-02-26T00:51:45;3.80;99.90
52869;DHT22;39100;53.480;6.158;2023-02-26T00:56:44;3.80;99.90
52869;DHT22;39100;53.480;6.158;2023-02-26T00:59:10;3.80;99.90
52869;DHT22;39100;53.480;6.158;2023-02-26T01:01:35;3.80;99.90
52869;DHT22;39100;53.480;6.158;2023-02-26T01:04:01;3.80;99.90
52869;DHT22;39100;53.480;6.158;2023-02-26T01:06:31;3.80;99.90
52869;DHT22;39100;53.480;6.158;2023-02-26T01:09:19;3.90;99.90
52869;DHT22;39100;53.480;6.158;2023-02-26T01:11:47;3.90;99.90
52869;DHT22;39100;53.480;6.158;2023-02-26T01:14:13;3.90;99.90
52869;DHT22;39100;53.480;6.158;2023-02-26T01:22:27;3.90;99.90
52869;DHT22;39100;53.480;6.158;2023-02-26T01:25:08;3.90;99.90
52869;DHT22;39100;53.480;6.158;2023-02-26T01:27:35;3.90;99.90
52869;DHT22;39100;53.480;6.158;2023-02-26T01:30:01;3.90;99.90
52869;DHT22;39100;53.480;6.158;2023-02-26T01:35:19;3.80;99.90
52869;DHT22;39100;53.480;6.158;2023-02-26T01:40:58;3.70;99.90
52869;DHT22;39100;53.480;6.158;2023-02-26T01:43:33;3.70;99.90
52869;DHT22;39100;53.480;6.158;2023-02-26T01:46:13;3.60;99.90
52869;DHT22;39100;53.480;6.158;2023-02-26T01:48:54;3.60;99.90
52869;DHT22;39100;53.480;6.158;2023-02-26T01:51:49;3.60;99.90
52869;DHT22;39100;53.480;6.158;2023-02-26T01:54:18;3.60;99.90
52869;DHT22;39100;53.480;6.158;2023-02-26T01:56:45;3.60;99.90
52869;DHT22;39100;53.480;6.158;2023-02-26T01:59:14;3.60;99.90
52869;DHT22;39100;53.480;6.158;2023-02-26T02:01:40;3.60;99.90
52869;DHT22;39100;53.480;6.158;2023-02-26T02:04:10;3.60;99.90
52869;DHT22;39100;53.480;6.158;2023-02-26T02:06:37;3.70;99.90
52869;DHT22;39100;53.480;6.158;2023-02-26T02:09:06;3.70;99.90
52869;DHT22;39100;53.480;6.158;2023-02-26T02:11:33;3.70;99.90
52869;DHT22;39100;53.480;6.158;2023-02-26T02:17:00;3.60;99.90
52869;DHT22;39100;53.480;6.158;2023-02-26T02:28:05;3.60;99.90
52869;DHT22;39100;53.480;6.158;2023-02-26T02:33:31;3.60;99.90
52869;DHT22;39100;53.480;6.158;2023-02-26T02:36:04;3.60;99.90
52869;DHT22;39100;53.480;6.158;2023-02-26T02:38:41;3.50;99.90
52869;DHT22;39100;53.480;6.158;2023-02-26T02:41:45;3.50;99.90
52869;DHT22;39100;53.480;6.158;2023-02-26T02:44:15;3.60;99.90
52869;DHT22;39100;53.480;6.158;2023-02-26T02:46:44;3.50;99.90
52869;DHT22;39100;53.480;6.158;2023-02-26T02:49:15;3.50;99.90
52869;DHT22;39100;53.480;6.158;2023-02-26T02:51:46;3.50;99.90
52869;DHT22;39100;53.480;6.158;2023-02-26T02:54:35;3.50;99.90
52869;DHT22;39100;53.480;6.158;2023-02-26T02:57:16;3.50;99.90
52869;DHT22;39100;53.480;6.158;2023-02-26T02:59:46;3.50;99.90
52869;DHT22;39100;53.480;6.158;2023-02-26T03:02:25;3.50;99.90
52869;DHT22;39100;53.480;6.158;2023-02-26T03:04:53;3.50;99.90
52869;DHT22;39100;53.480;6.158;2023-02-26T03:07:18;3.40;99.90
52869;DHT22;39100;53.480;6.158;2023-02-26T03:09:45;3.50;99.90
52869;DHT22;39100;53.480;6.158;2023-02-26T03:12:11;3.50;99.90
52869;DHT22;39100;53.480;6.158;2023-02-26T03:14:37;3.50;99.90
52869;DHT22;39100;53.480;6.158;2023-02-26T03:20:08;3.50;99.90
52869;DHT22;39100;53.480;6.158;2023-02-26T03:22:42;3.60;99.90
52869;DHT22;39100;53.480;6.158;2023-02-26T03:27:57;3.60;99.90
52869;DHT22;39100;53.480;6.158;2023-02-26T03:38:06;3.60;99.90
52869;DHT22;39100;53.480;6.158;2023-02-26T03:40:40;3.70;99.90
52869;DHT22;39100;53.480;6.158;2023-02-26T03:43:22;3.70;99.90
52869;DHT22;39100;53.480;6.158;2023-02-26T03:45:50;3.60;99.90
52869;DHT22;39100;53.480;6.158;2023-02-26T03:48:19;3.60;99.90
52869;DHT22;39100;53.480;6.158;2023-02-26T03:50:50;3.60;99.90
52869;DHT22;39100;53.480;6.158;2023-02-26T03:53:21;3.60;99.90
52869;DHT22;39100;53.480;6.158;2023-02-26T03:58:33;3.60;99.90
52869;DHT22;39100;53.480;6.158;2023-02-26T04:01:04;3.60;99.90
52869;DHT22;39100;53.480;6.158;2023-02-26T04:03:43;3.60;99.90
52869;DHT22;39100;53.480;6.158;2023-02-26T04:06:10;3.60;99.90
52869;DHT22;39100;53.480;6.158;2023-02-26T04:08:36;3.60;99.90
52869;DHT22;39100;53.480;6.158;2023-02-26T04:11:09;3.60;99.90
52869;DHT22;39100;53.480;6.158;2023-02-26T04:13:35;3.50;99.90
52869;DHT22;39100;53.480;6.158;2023-02-26T04:16:01;3.50;99.90
52869;DHT22;39100;53.480;6.158;2023-02-26T04:18:27;3.50;99.90
52869;DHT22;39100;53.480;6.158;2023-02-26T04:20:52;3.40;99.90
52869;DHT22;39100;53.480;6.158;2023-02-26T04:23:18;3.40;99.90
52869;DHT22;39100;53.480;6.158;2023-02-26T04:25:44;3.30;99.90
52869;DHT22;39100;53.480;6.158;2023-02-26T04:28:10;3.30;99.90
52869;DHT22;39100;53.480;6.158;2023-02-26T04:30:35;3.30;99.90
52869;DHT22;39100;53.480;6.158;2023-02-26T04:33:01;3.30;99.90
52869;DHT22;39100;53.480;6.158;2023-02-26T04:35:27;3.30;99.90
52869;DHT22;39100;53.480;6.158;2023-02-26T04:37:52;3.30;99.90
52869;DHT22;39100;53.480;6.158;2023-02-26T04:40:18;3.30;99.90
52869;DHT22;39100;53.480;6.158;2023-02-26T04:42:43;3.20;99.90
52869;DHT22;39100;53.480;6.158;2023-02-26T04:45:09;3.20;99.90
52869;DHT22;39100;53.480;6.158;2023-02-26T04:47:35;3.20;99.90
52869;DHT22;39100;53.480;6.158;2023-02-26T04:50:01;3.20;99.90
52869;DHT22;39100;53.480;6.158;2023-02-26T04:52:26;3.20;99.90
52869;DHT22;39100;53.480;6.158;2023-02-26T04:54:52;3.20;99.90
52869;DHT22;39100;53.480;6.158;2023-02-26T04:57:17;3.20;99.90
52869;DHT22;39100;53.480;6.158;2023-02-26T04:59:43;3.20;99.90
52869;DHT22;39100;53.480;6.158;2023-02-26T05:02:09;3.20;99.90
52869;DHT22;39100;53.480;6.158;2023-02-26T05:04:34;3.20;99.90
52869;DHT22;39100;53.480;6.158;2023-02-26T05:07:00;3.20;99.90
52869;DHT22;39100;53.480;6.158;2023-02-26T05:09:27;3.20;99.90
52869;DHT22;39100;53.480;6.158;2023-02-26T05:11:52;3.20;99.90
52869;DHT22;39100;53.480;6.158;2023-02-26T05:14:18;3.20;99.90
52869;DHT22;39100;53.480;6.158;2023-02-26T05:16:44;3.20;99.90
52869;DHT22;39100;53.480;6.158;2023-02-26T05:19:09;3.20;99.90
52869;DHT22;39100;53.480;6.158;2023-02-26T05:21:35;3.20;99.90
52869;DHT22;39100;53.480;6.158;2023-02-26T05:24:00;3.20;99.90
52869;DHT22;39100;53.480;6.158;2023-02-26T05:26:26;3.20;99.90
52869;DHT22;39100;53.480;6.158;2023-02-26T05:28:52;3.20;99.90
52869;DHT22;39100;53.480;6.158;2023-02-26T05:31:17;3.20;99.90
52869;DHT22;39100;53.480;6.158;2023-02-26T05:33:43;3.20;99.90
52869;DHT22;39100;53.480;6.158;2023-02-26T05:36:09;3.20;99.90
52869;DHT22;39100;53.480;6.158;2023-02-26T05:38:35;3.20;99.90
52869;DHT22;39100;53.480;6.158;2023-02-26T05:41:01;3.20;99.90
52869;DHT22;39100;53.480;6.158;2023-02-26T05:43:27;3.20;99.90
52869;DHT22;39100;53.480;6.158;2023-02-26T05:45:53;3.20;99.90
52869;DHT22;39100;53.480;6.158;2023-02-26T05:48:18;3.20;99.90
52869;DHT22;39100;53.480;6.158;2023-02-26T05:50:45;3.20;99.90
52869;DHT22;39100;53.480;6.158;2023-02-26T05:53:11;3.30;99.90
52869;DHT22;39100;53.480;6.158;2023-02-26T05:55:36;3.20;99.90
52869;DHT22;39100;53.480;6.158;2023-02-26T05:58:02;3.30;99.90
52869;DHT22;39100;53.480;6.158;2023-02-26T06:00:27;3.30;99.90
52869;DHT22;39100;53.480;6.158;2023-02-26T06:02:53;3.30;99.90
52869;DHT22;39100;53.480;6.158;2023-02-26T06:05:22;3.30;99.90
52869;DHT22;39100;53.480;6.158;2023-02-26T06:07:47;3.30;99.90
52869;DHT22;39100;53.480;6.158;2023-02-26T06:10:13;3.30;99.90
52869;DHT22;39100;53.480;6.158;2023-02-26T06:12:39;3.40;99.90
52869;DHT22;39100;53.480;6.158;2023-02-26T06:15:06;3.40;99.90
52869;DHT22;39100;53.480;6.158;2023-02-26T06:17:32;3.40;99.90
52869;DHT22;39100;53.480;6.158;2023-02-26T06:19:58;3.40;99.90
52869;DHT22;39100;53.480;6.158;2023-02-26T06:22:23;3.40;99.90
52869;DHT22;39100;53.480;6.158;2023-02-26T06:24:49;3.40;99.90
52869;DHT22;39100;53.480;6.158;2023-02-26T06:27:15;3.40;99.90
52869;DHT22;39100;53.480;6.158;2023-02-26T06:29:40;4.60;99.90
52869;DHT22;39100;53.480;6.158;2023-02-26T06:32:06;3.40;99.90
52869;DHT22;39100;53.480;6.158;2023-02-26T06:34:32;3.40;99.90
52869;DHT22;39100;53.480;6.158;2023-02-26T06:36:58;3.50;99.90
52869;DHT22;39100;53.480;6.158;2023-02-26T06:39:23;3.50;99.90
52869;DHT22;39100;53.480;6.158;2023-02-26T06:41:49;3.50;99.90
52869;DHT22;39100;53.480;6.158;2023-02-26T06:44:14;3.50;99.90
52869;DHT22;39100;53.480;6.158;2023-02-26T06:46:40;3.50;99.90
52869;DHT22;39100;53.480;6.158;2023-02-26T06:49:06;3.60;99.90
52869;DHT22;39100;53.480;6.158;2023-02-26T06:51:32;3.60;99.90
52869;DHT22;39100;53.480;6.158;2023-02-26T06:53:57;3.60;99.90
52869;DHT22;39100;53.480;6.158;2023-02-26T06:56:23;3.60;99.90
52869;DHT22;39100;53.480;6.158;2023-02-26T06:58:48;3.60;99.90
52869;DHT22;39100;53.480;6.158;2023-02-26T07:01:14;3.70;99.90
52869;DHT22;39100;53.480;6.158;2023-02-26T07:03:40;3.70;99.90
52869;DHT22;39100;53.480;6.158;2023-02-26T07:06:06;3.70;99.90
52869;DHT22;39100;53.480;6.158;2023-02-26T07:08:33;3.80;99.90
52869;DHT22;39100;53.480;6.158;2023-02-26T07:10:59;3.90;99.90
52869;DHT22;39100;53.480;6.158;2023-02-26T07:13:25;4.00;99.90
52869;DHT22;39100;53.480;6.158;2023-02-26T07:15:50;4.10;99.90
52869;DHT22;39100;53.480;6.158;2023-02-26T07:18:16;4.20;99.90
52869;DHT22;39100;53.480;6.158;2023-02-26T07:20:42;4.30;99.90
52869;DHT22;39100;53.480;6.158;2023-02-26T07:23:09;4.40;99.90
52869;DHT22;39100;53.480;6.158;2023-02-26T07:25:35;4.50;99.90
52869;DHT22;39100;53.480;6.158;2023-02-26T07:28:02;4.60;99.90
52869;DHT22;39100;53.480;6.158;2023-02-26T07:30:28;4.60;99.90
52869;DHT22;39100;53.480;6.158;2023-02-26T07:32:55;4.70;99.90
52869;DHT22;39100;53.480;6.158;2023-02-26T07:35:21;4.70;99.90
52869;DHT22;39100;53.480;6.158;2023-02-26T07:37:46;5.00;99.90
52869;DHT22;39100;53.480;6.158;2023-02-26T07:40:12;5.30;99.90
52869;DHT22;39100;53.480;6.158;2023-02-26T07:42:38;5.40;99.90
52869;DHT22;39100;53.480;6.158;2023-02-26T07:45:04;5.40;99.90
52869;DHT22;39100;53.480;6.158;2023-02-26T07:47:30;5.40;99.90
52869;DHT22;39100;53.480;6.158;2023-02-26T07:49:56;5.40;99.90
52869;DHT22;39100;53.480;6.158;2023-02-26T07:52:22;5.40;99.90
52869;DHT22;39100;53.480;6.158;2023-02-26T07:54:48;5.50;99.90
52869;DHT22;39100;53.480;6.158;2023-02-26T07:57:13;5.70;99.90
52869;DHT22;39100;53.480;6.158;2023-02-26T07:59:39;5.90;99.90
52869;DHT22;39100;53.480;6.158;2023-02-26T08:02:05;6.10;99.90
52869;DHT22;39100;53.480;6.158;2023-02-26T08:04:30;6.10;99.90
52869;DHT22;39100;53.480;6.158;2023-02-26T08:06:58;6.10;99.90
52869;DHT22;39100;53.480;6.158;2023-02-26T08:09:25;6.10;99.90
52869;DHT22;39100;53.480;6.158;2023-02-26T08:11:51;6.10;99.90
52869;DHT22;39100;53.480;6.158;2023-02-26T08:14:16;6.10;99.90
52869;DHT22;39100;53.480;6.158;2023-02-26T08:16:42;5.90;99.90
52869;DHT22;39100;53.480;6.158;2023-02-26T08:19:08;5.80;99.90
52869;DHT22;39100;53.480;6.158;2023-02-26T08:21:33;5.80;99.90
52869;DHT22;39100;53.480;6.158;2023-02-26T08:23:59;5.60;99.90
52869;DHT22;39100;53.480;6.158;2023-02-26T08:26:25;5.50;99.90
52869;DHT22;39100;53.480;6.158;2023-02-26T08:28:51;5.40;99.90
52869;DHT22;39100;53.480;6.158;2023-02-26T08:31:16;5.30;99.90
52869;DHT22;39100;53.480;6.158;2023-02-26T08:33:42;5.30;99.90
52869;DHT22;39100;53.480;6.158;2023-02-26T08:36:08;5.20;99.90
52869;DHT22;39100;53.480;6.158;2023-02-26T08:38:33;5.30;99.90
52869;DHT22;39100;53.480;6.158;2023-02-26T08:40:59;5.20;99.90
52869;DHT22;39100;53.480;6.158;2023-02-26T08:43:25;5.20;99.90
52869;DHT22;39100;53.480;6.158;2023-02-26T08:45:55;5.20;99.90
52869;DHT22;39100;53.480;6.158;2023-02-26T08:48:21;5.40;99.90
52869;DHT22;39100;53.480;6.158;2023-02-26T08:50:47;5.60;99.90
52869;DHT22;39100;53.480;6.158;2023-02-26T08:53:13;5.70;99.90
52869;DHT22;39100;53.480;6.158;2023-02-26T08:55:39;5.80;99.90
52869;DHT22;39100;53.480;6.158;2023-02-26T08:58:04;5.90;99.90
52869;DHT22;39100;53.480;6.158;2023-02-26T09:00:32;6.10;99.90
52869;DHT22;39100;53.480;6.158;2023-02-26T09:02:58;6.20;99.90
52869;DHT22;39100;53.480;6.158;2023-02-26T09:05:24;6.50;99.90
52869;DHT22;39100;53.480;6.158;2023-02-26T09:07:50;6.80;99.90
52869;DHT22;39100;53.480;6.158;2023-02-26T09:10:16;7.20;99.90
52869;DHT22;39100;53.480;6.158;2023-02-26T09:12:42;7.70;99.90
52869;DHT22;39100;53.480;6.158;2023-02-26T09:15:08;8.30;99.90
52869;DHT22;39100;53.480;6.158;2023-02-26T09:17:34;8.60;99.90
52869;DHT22;39100;53.480;6.158;2023-02-26T09:20:00;8.80;99.90
52869;DHT22;39100;53.480;6.158;2023-02-26T09:22:26;8.80;99.90
52869;DHT22;39100;53.480;6.158;2023-02-26T09:24:51;9.40;99.90
52869;DHT22;39100;53.480;6.158;2023-02-26T09:27:17;8.60;99.90
52869;DHT22;39100;53.480;6.158;2023-02-26T09:29:43;8.60;99.90
52869;DHT22;39100;53.480;6.158;2023-02-26T09:32:08;8.80;99.90
52869;DHT22;39100;53.480;6.158;2023-02-26T09:34:35;8.90;99.90
52869;DHT22;39100;53.480;6.158;2023-02-26T09:37:06;9.00;99.90
52869;DHT22;39100;53.480;6.158;2023-02-26T09:39:32;9.30;99.90
52869;DHT22;39100;53.480;6.158;2023-02-26T09:42:43;9.50;99.90
52869;DHT22;39100;53.480;6.158;2023-02-26T09:44:49;9.70;99.90
52869;DHT22;39100;53.480;6.158;2023-02-26T09:47:20;9.80;99.90
52869;DHT22;39100;53.480;6.158;2023-02-26T09:50:01;9.80;99.90
52869;DHT22;39100;53.480;6.158;2023-02-26T09:52:42;9.70;99.90
52869;DHT22;39100;53.480;6.158;2023-02-26T09:55:23;9.40;99.90
52869;DHT22;39100;53.480;6.158;2023-02-26T09:57:55;9.00;99.90
52869;DHT22;39100;53.480;6.158;2023-02-26T10:06:34;7.90;99.90
52869;DHT22;39100;53.480;6.158;2023-02-26T10:11:53;7.80;99.90
52869;DHT22;39100;53.480;6.158;2023-02-26T10:16:57;7.90;99.90
52869;DHT22;39100;53.480;6.158;2023-02-26T10:19:34;8.10;99.90
52869;DHT22;39100;53.480;6.158;2023-02-26T10:24:48;8.00;99.90
52869;DHT22;39100;53.480;6.158;2023-02-26T10:27:19;8.00;99.90
52869;DHT22;39100;53.480;6.158;2023-02-26T10:29:57;8.20;99.90
52869;DHT22;39100;53.480;6.158;2023-02-26T10:35:15;8.30;99.90
52869;DHT22;39100;53.480;6.158;2023-02-26T10:37:57;8.50;99.90
52869;DHT22;39100;53.480;6.158;2023-02-26T10:40:40;8.60;99.90
52869;DHT22;39100;53.480;6.158;2023-02-26T10:43:17;8.70;99.90
52869;DHT22;39100;53.480;6.158;2023-02-26T10:46:08;9.10;99.90
52869;DHT22;39100;53.480;6.158;2023-02-26T10:51:41;9.70;99.90
52869;DHT22;39100;53.480;6.158;2023-02-26T10:54:20;9.70;99.90
52869;DHT22;39100;53.480;6.158;2023-02-26T10:56:48;9.70;99.90
52869;DHT22;39100;53.480;6.158;2023-02-26T10:59:14;9.80;99.90
52869;DHT22;39100;53.480;6.158;2023-02-26T11:01:40;10.00;99.90
52869;DHT22;39100;53.480;6.158;2023-02-26T11:04:17;10.10;99.90
52869;DHT22;39100;53.480;6.158;2023-02-26T11:06:55;10.40;99.90
52869;DHT22;39100;53.480;6.158;2023-02-26T11:09:32;10.10;99.90
52869;DHT22;39100;53.480;6.158;2023-02-26T11:12:19;10.10;99.90
52869;DHT22;39100;53.480;6.158;2023-02-26T11:14:47;10.00;99.90
52869;DHT22;39100;53.480;6.158;2023-02-26T11:17:22;10.10;99.90
52869;DHT22;39100;53.480;6.158;2023-02-26T11:20:04;10.10;99.90
52869;DHT22;39100;53.480;6.158;2023-02-26T11:22:37;10.30;99.90
52869;DHT22;39100;53.480;6.158;2023-02-26T11:25:04;10.60;99.90
52869;DHT22;39100;53.480;6.158;2023-02-26T11:27:35;11.00;99.90
52869;DHT22;39100;53.480;6.158;2023-02-26T11:30:19;11.30;99.90
52869;DHT22;39100;53.480;6.158;2023-02-26T11:32:51;11.80;99.90
52869;DHT22;39100;53.480;6.158;2023-02-26T11:35:18;12.50;99.90
52869;DHT22;39100;53.480;6.158;2023-02-26T11:37:47;13.10;99.90
52869;DHT22;39100;53.480;6.158;2023-02-26T11:42:57;13.40;99.90
52869;DHT22;39100;53.480;6.158;2023-02-26T11:45:23;13.30;99.90
52869;DHT22;39100;53.480;6.158;2023-02-26T11:47:57;13.30;99.90
52869;DHT22;39100;53.480;6.158;2023-02-26T11:50:24;13.50;99.90
52869;DHT22;39100;53.480;6.158;2023-02-26T11:53:04;14.20;99.90
52869;DHT22;39100;53.480;6.158;2023-02-26T11:55:35;14.90;99.90
52869;DHT22;39100;53.480;6.158;2023-02-26T11:58:14;14.90;99.90
52869;DHT22;39100;53.480;6.158;2023-02-26T12:00:41;15.50;99.90
52869;DHT22;39100;53.480;6.158;2023-02-26T12:03:19;15.50;99.90
52869;DHT22;39100;53.480;6.158;2023-02-26T12:05:45;15.40;99.90
52869;DHT22;39100;53.480;6.158;2023-02-26T12:08:21;15.00;99.90
52869;DHT22;39100;53.480;6.158;2023-02-26T12:16:30;15.20;99.90
52869;DHT22;39100;53.480;6.158;2023-02-26T12:19:26;15.10;99.90
52869;DHT22;39100;53.480;6.158;2023-02-26T12:22:34;15.20;99.90
52869;DHT22;39100;53.480;6.158;2023-02-26T12:25:19;15.40;99.90
52869;DHT22;39100;53.480;6.158;2023-02-26T12:28:09;16.10;99.90
52869;DHT22;39100;53.480;6.158;2023-02-26T12:31:07;16.70;99.90
52869;DHT22;39100;53.480;6.158;2023-02-26T12:36:30;18.20;99.90
52869;DHT22;39100;53.480;6.158;2023-02-26T12:39:30;18.40;99.90
52869;DHT22;39100;53.480;6.158;2023-02-26T12:50:45;17.10;99.90
52869;DHT22;39100;53.480;6.158;2023-02-26T13:21:58;17.50;99.40
52869;DHT22;39100;53.480;6.158;2023-02-26T13:26:57;17.80;99.20
52869;DHT22;39100;53.480;6.158;2023-02-26T13:29:31;17.30;99.10
52869;DHT22;39100;53.480;6.158;2023-02-26T13:32:05;16.50;99.70
52869;DHT22;39100;53.480;6.158;2023-02-26T13:37:14;14.00;99.90
52869;DHT22;39100;53.480;6.158;2023-02-26T13:42:59;14.20;99.90
52869;DHT22;39100;53.480;6.158;2023-02-26T13:45:30;14.80;99.90
52869;DHT22;39100;53.480;6.158;2023-02-26T13:48:22;15.10;99.90
52869;DHT22;39100;53.480;6.158;2023-02-26T13:51:11;15.20;99.90
52869;DHT22;39100;53.480;6.158;2023-02-26T14:07:09;14.20;99.90
52869;DHT22;39100;53.480;6.158;2023-02-26T14:09:59;14.00;99.90
52869;DHT22;39100;53.480;6.158;2023-02-26T14:12:36;13.30;99.90
52869;DHT22;39100;53.480;6.158;2023-02-26T14:20:25;11.80;99.90
52869;DHT22;39100;53.480;6.158;2023-02-26T14:25:28;10.80;99.90
52869;DHT22;39100;53.480;6.158;2023-02-26T14:31:04;10.20;99.90
52869;DHT22;39100;53.480;6.158;2023-02-26T14:33:36;10.10;99.90
52869;DHT22;39100;53.480;6.158;2023-02-26T14:36:05;9.90;99.90
52869;DHT22;39100;53.480;6.158;2023-02-26T14:38:36;9.80;99.90
52869;DHT22;39100;53.480;6.158;2023-02-26T14:41:06;9.80;99.90
52869;DHT22;39100;53.480;6.158;2023-02-26T14:43:37;9.80;99.90
52869;DHT22;39100;53.480;6.158;2023-02-26T14:46:04;9.70;99.90
52869;DHT22;39100;53.480;6.158;2023-02-26T14:48:32;9.50;99.90
52869;DHT22;39100;53.480;6.158;2023-02-26T15:01:55;9.10;99.90
52869;DHT22;39100;53.480;6.158;2023-02-26T15:15:30;8.90;99.90
52869;DHT22;39100;53.480;6.158;2023-02-26T15:18:12;8.80;99.90
52869;DHT22;39100;53.480;6.158;2023-02-26T15:25:42;8.90;99.90
52869;DHT22;39100;53.480;6.158;2023-02-26T15:28:32;8.80;99.90
52869;DHT22;39100;53.480;6.158;2023-02-26T15:31:02;8.70;99.90
52869;DHT22;39100;53.480;6.158;2023-02-26T15:33:30;8.60;99.90
52869;DHT22;39100;53.480;6.158;2023-02-26T15:35:57;8.40;99.90
52869;DHT22;39100;53.480;6.158;2023-02-26T15:38:23;8.20;99.90
52869;DHT22;39100;53.480;6.158;2023-02-26T15:40:53;8.10;99.90
52869;DHT22;39100;53.480;6.158;2023-02-26T15:43:25;7.90;99.90
52869;DHT22;39100;53.480;6.158;2023-02-26T15:45:54;7.90;99.90
52869;DHT22;39100;53.480;6.158;2023-02-26T15:48:36;7.80;99.90
52869;DHT22;39100;53.480;6.158;2023-02-26T15:51:04;7.80;99.90
52869;DHT22;39100;53.480;6.158;2023-02-26T15:53:34;7.70;99.90
52869;DHT22;39100;53.480;6.158;2023-02-26T15:56:05;7.60;99.90
52869;DHT22;39100;53.480;6.158;2023-02-26T15:58:41;7.60;99.90
52869;DHT22;39100;53.480;6.158;2023-02-26T16:01:18;7.50;99.90
52869;DHT22;39100;53.480;6.158;2023-02-26T16:03:44;7.40;99.90
52869;DHT22;39100;53.480;6.158;2023-02-26T16:06:14;7.40;99.90
52869;DHT22;39100;53.480;6.158;2023-02-26T16:08:40;7.30;99.90
52869;DHT22;39100;53.480;6.158;2023-02-26T16:11:06;7.20;99.90
52869;DHT22;39100;53.480;6.158;2023-02-26T16:13:35;7.10;99.90
52869;DHT22;39100;53.480;6.158;2023-02-26T16:16:05;7.00;99.90
52869;DHT22;39100;53.480;6.158;2023-02-26T16:18:34;6.90;99.90
52869;DHT22;39100;53.480;6.158;2023-02-26T16:21:01;6.90;99.90
52869;DHT22;39100;53.480;6.158;2023-02-26T16:23:38;6.80;99.90
52869;DHT22;39100;53.480;6.158;2023-02-26T16:26:06;6.70;99.90
52869;DHT22;39100;53.480;6.158;2023-02-26T16:28:38;6.70;99.90
52869;DHT22;39100;53.480;6.158;2023-02-26T16:31:16;6.70;99.90
52869;DHT22;39100;53.480;6.158;2023-02-26T16:33:56;6.60;99.90
52869;DHT22;39100;53.480;6.158;2023-02-26T16:36:25;6.60;99.90
52869;DHT22;39100;53.480;6.158;2023-02-26T16:39:12;6.50;99.90
52869;DHT22;39100;53.480;6.158;2023-02-26T16:41:46;6.50;99.90
52869;DHT22;39100;53.480;6.158;2023-02-26T16:46:56;6.40;99.90
52869;DHT22;39100;53.480;6.158;2023-02-26T16:49:32;6.30;99.90
52869;DHT22;39100;53.480;6.158;2023-02-26T16:51:59;6.30;99.90
52869;DHT22;39100;53.480;6.158;2023-02-26T16:54:29;6.20;99.90
52869;DHT22;39100;53.480;6.158;2023-02-26T16:56:59;6.20;99.90
52869;DHT22;39100;53.480;6.158;2023-02-26T16:59:31;6.10;99.90
52869;DHT22;39100;53.480;6.158;2023-02-26T17:02:15;6.00;99.90
52869;DHT22;39100;53.480;6.158;2023-02-26T17:04:46;5.90;99.90
52869;DHT22;39100;53.480;6.158;2023-02-26T17:07:26;5.90;99.90
52869;DHT22;39100;53.480;6.158;2023-02-26T17:09:56;5.90;99.90
52869;DHT22;39100;53.480;6.158;2023-02-26T17:12:29;5.90;99.90
52869;DHT22;39100;53.480;6.158;2023-02-26T17:15:10;5.80;99.90
52869;DHT22;39100;53.480;6.158;2023-02-26T17:17:36;5.80;99.90
52869;DHT22;39100;53.480;6.158;2023-02-26T17:20:01;5.80;99.90
52869;DHT22;39100;53.480;6.158;2023-02-26T17:22:28;5.80;99.90
52869;DHT22;39100;53.480;6.158;2023-02-26T17:24:53;5.70;99.90
52869;DHT22;39100;53.480;6.158;2023-02-26T17:27:32;5.70;99.90
52869;DHT22;39100;53.480;6.158;2023-02-26T17:30:00;5.60;99.90
52869;DHT22;39100;53.480;6.158;2023-02-26T17:32:26;5.60;99.90
52869;DHT22;39100;53.480;6.158;2023-02-26T17:34:52;5.60;99.90
52869;DHT22;39100;53.480;6.158;2023-02-26T17:37:18;5.70;99.90
52869;DHT22;39100;53.480;6.158;2023-02-26T17:39:45;5.60;99.90
52869;DHT22;39100;53.480;6.158;2023-02-26T17:42:16;5.60;99.90
52869;DHT22;39100;53.480;6.158;2023-02-26T17:44:43;5.60;99.90
52869;DHT22;39100;53.480;6.158;2023-02-26T17:47:15;5.60;99.90
52869;DHT22;39100;53.480;6.158;2023-02-26T17:49:42;5.50;99.90
52869;DHT22;39100;53.480;6.158;2023-02-26T17:52:07;5.40;99.90
52869;DHT22;39100;53.480;6.158;2023-02-26T17:54:33;5.30;99.90
52869;DHT22;39100;53.480;6.158;2023-02-26T17:56:58;5.20;99.90
52869;DHT22;39100;53.480;6.158;2023-02-26T17:59:24;5.20;99.90
52869;DHT22;39100;53.480;6.158;2023-02-26T18:01:51;5.20;99.90
52869;DHT22;39100;53.480;6.158;2023-02-26T18:04:17;5.30;99.90
52869;DHT22;39100;53.480;6.158;2023-02-26T18:06:43;5.30;99.90
52869;DHT22;39100;53.480;6.158;2023-02-26T18:09:10;5.30;99.90
52869;DHT22;39100;53.480;6.158;2023-02-26T18:11:36;5.30;99.90
52869;DHT22;39100;53.480;6.158;2023-02-26T18:14:03;5.30;99.90
52869;DHT22;39100;53.480;6.158;2023-02-26T18:16:33;5.30;99.90
52869;DHT22;39100;53.480;6.158;2023-02-26T18:18:59;5.40;99.90
52869;DHT22;39100;53.480;6.158;2023-02-26T18:21:25;5.40;99.90
52869;DHT22;39100;53.480;6.158;2023-02-26T18:23:52;5.40;99.90
52869;DHT22;39100;53.480;6.158;2023-02-26T18:26:21;5.40;99.90
52869;DHT22;39100;53.480;6.158;2023-02-26T18:28:48;5.50;99.90
52869;DHT22;39100;53.480;6.158;2023-02-26T18:31:16;5.50;99.90
52869;DHT22;39100;53.480;6.158;2023-02-26T18:33:42;5.60;99.90
52869;DHT22;39100;53.480;6.158;2023-02-26T18:36:17;5.60;99.90
52869;DHT22;39100;53.480;6.158;2023-02-26T18:38:43;5.50;99.90
52869;DHT22;39100;53.480;6.158;2023-02-26T18:41:09;5.50;99.90
52869;DHT22;39100;53.480;6.158;2023-02-26T18:43:34;5.50;99.90
52869;DHT22;39100;53.480;6.158;2023-02-26T18:46:00;5.50;99.90
52869;DHT22;39100;53.480;6.158;2023-02-26T18:48:26;5.50;99.90
52869;DHT22;39100;53.480;6.158;2023-02-26T18:50:52;5.50;99.90
52869;DHT22;39100;53.480;6.158;2023-02-26T18:53:20;5.50;99.90
52869;DHT22;39100;53.480;6.158;2023-02-26T18:55:52;5.50;99.90
52869;DHT22;39100;53.480;6.158;2023-02-26T18:58:19;5.50;99.90
52869;DHT22;39100;53.480;6.158;2023-02-26T19:00:45;5.50;99.90